sensor_id;sensor_type;location;lat;lon;timestamp;P1;durP1;ratioP1;P2;durP2;ratioP2
28629;SDS011;15817;42.130;24.762;2023-03-18T00:37:56;14.85;;;9.82;;
28629;SDS011;15817;42.130;24.762;2023-03-18T00:40:23;14.30;;;9.77;;
28629;SDS011;15817;42.130;24.762;2023-03-18T00:43:00;11.02;;;8.10;;
28629;SDS011;15817;42.130;24.762;2023-03-18T00:45:36;11.60;;;7.88;;
28629;SDS011;15817;42.130;24.762;2023-03-18T00:48:05;10.60;;;7.85;;
28629;SDS011;15817;42.130;24.762;2023-03-18T00:50:47;9.30;;;7.25;;
28629;SDS011;15817;42.130;24.762;2023-03-18T00:53:25;14.27;;;7.20;;
28629;SDS011;15817;42.130;24.762;2023-03-18T00:58:57;8.27;;;6.15;;
28629;SDS011;15817;42.130;24.762;2023-03-18T01:01:26;8.65;;;6.10;;
28629;SDS011;15817;42.130;24.762;2023-03-18T01:04:02;10.32;;;6.60;;
28629;SDS011;15817;42.130;24.762;2023-03-18T01:07:04;10.07;;;6.47;;
28629;SDS011;15817;42.130;24.762;2023-03-18T01:09:39;11.40;;;7.30;;
28629;SDS011;15817;42.130;24.762;2023-03-18T01:12:14;8.95;;;6.82;;
28629;SDS011;15817;42.130;24.762;2023-03-18T01:14:57;11.70;;;6.85;;
28629;SDS011;15817;42.130;24.762;2023-03-18T01:17:25;8.68;;;6.93;;
28629;SDS011;15817;42.130;24.762;2023-03-18T01:19:54;10.50;;;6.38;;
28629;SDS011;15817;42.130;24.762;2023-03-18T01:22:23;10.40;;;6.72;;
28629;SDS011;15817;42.130;24.762;2023-03-18T01:24:52;11.40;;;7.25;;
28629;SDS011;15817;42.130;24.762;2023-03-18T01:27:27;9.82;;;6.75;;
28629;SDS011;15817;42.130;24.762;2023-03-18T01:30:18;11.88;;;6.32;;
28629;SDS011;15817;42.130;24.762;2023-03-18T01:32:50;10.07;;;6.35;;
28629;SDS011;15817;42.130;24.762;2023-03-18T01:35:20;10.25;;;7.13;;
28629;SDS011;15817;42.130;24.762;2023-03-18T01:37:51;12.57;;;7.47;;
28629;SDS011;15817;42.130;24.762;2023-03-18T01:40:22;12.32;;;8.07;;
28629;SDS011;15817;42.130;24.762;2023-03-18T01:42:56;12.75;;;8.07;;
28629;SDS011;15817;42.130;24.762;2023-03-18T01:45:39;12.95;;;8.25;;
28629;SDS011;15817;42.130;24.762;2023-03-18T01:48:15;13.27;;;7.68;;
28629;SDS011;15817;42.130;24.762;2023-03-18T01:50:48;14.05;;;6.85;;
28629;SDS011;15817;42.130;24.762;2023-03-18T01:53:24;9.55;;;6.63;;
28629;SDS011;15817;42.130;24.762;2023-03-18T01:55:56;9.75;;;6.68;;
28629;SDS011;15817;42.130;24.762;2023-03-18T01:58:36;10.63;;;6.32;;
28629;SDS011;15817;42.130;24.762;2023-03-18T02:01:15;10.77;;;6.00;;
28629;SDS011;15817;42.130;24.762;2023-03-18T02:03:49;7.93;;;6.00;;
28629;SDS011;15817;42.130;24.762;2023-03-18T02:06:16;8.60;;;6.05;;
28629;SDS011;15817;42.130;24.762;2023-03-18T02:08:46;11.60;;;6.93;;
28629;SDS011;15817;42.130;24.762;2023-03-18T02:11:12;12.98;;;6.55;;
28629;SDS011;15817;42.130;24.762;2023-03-18T02:13:39;9.57;;;5.90;;
28629;SDS011;15817;42.130;24.762;2023-03-18T02:16:17;11.52;;;9.05;;
28629;SDS011;15817;42.130;24.762;2023-03-18T02:19:12;14.13;;;8.85;;
28629;SDS011;15817;42.130;24.762;2023-03-18T02:41:48;7.15;;;5.55;;
28629;SDS011;15817;42.130;24.762;2023-03-18T02:57:05;9.40;;;6.70;;
28629;SDS011;15817;42.130;24.762;2023-03-18T02:59:35;9.18;;;6.30;;
28629;SDS011;15817;42.130;24.762;2023-03-18T03:02:16;8.93;;;6.47;;
28629;SDS011;15817;42.130;24.762;2023-03-18T03:04:42;7.40;;;6.00;;
28629;SDS011;15817;42.130;24.762;2023-03-18T03:07:14;10.70;;;6.93;;
28629;SDS011;15817;42.130;24.762;2023-03-18T03:09:51;8.50;;;5.80;;
28629;SDS011;15817;42.130;24.762;2023-03-18T03:12:19;9.30;;;6.18;;
28629;SDS011;15817;42.130;24.762;2023-03-18T03:14:50;7.03;;;5.70;;
28629;SDS011;15817;42.130;24.762;2023-03-18T03:17:17;7.38;;;5.90;;
28629;SDS011;15817;42.130;24.762;2023-03-18T03:19:43;7.13;;;5.15;;
28629;SDS011;15817;42.130;24.762;2023-03-18T03:22:20;6.05;;;5.10;;
28629;SDS011;15817;42.130;24.762;2023-03-18T03:24:49;6.22;;;4.90;;
28629;SDS011;15817;42.130;24.762;2023-03-18T03:27:18;7.15;;;4.80;;
28629;SDS011;15817;42.130;24.762;2023-03-18T03:29:46;5.47;;;4.30;;
28629;SDS011;15817;42.130;24.762;2023-03-18T03:32:18;6.05;;;4.38;;
28629;SDS011;15817;42.130;24.762;2023-03-18T03:34:46;10.77;;;4.13;;
28629;SDS011;15817;42.130;24.762;2023-03-18T03:37:14;6.10;;;4.47;;
28629;SDS011;15817;42.130;24.762;2023-03-18T03:39:41;5.68;;;4.60;;
28629;SDS011;15817;42.130;24.762;2023-03-18T03:42:09;5.38;;;4.15;;
28629;SDS011;15817;42.130;24.762;2023-03-18T03:44:35;7.30;;;4.70;;
28629;SDS011;15817;42.130;24.762;2023-03-18T03:47:14;6.45;;;4.50;;
28629;SDS011;15817;42.130;24.762;2023-03-18T03:49:49;7.05;;;5.32;;
28629;SDS011;15817;42.130;24.762;2023-03-18T03:52:19;6.28;;;4.93;;
28629;SDS011;15817;42.130;24.762;2023-03-18T03:54:54;7.03;;;5.45;;
28629;SDS011;15817;42.130;24.762;2023-03-18T03:57:21;8.23;;;5.07;;
28629;SDS011;15817;42.130;24.762;2023-03-18T03:59:51;7.25;;;5.05;;
28629;SDS011;15817;42.130;24.762;2023-03-18T04:02:20;6.07;;;5.03;;
28629;SDS011;15817;42.130;24.762;2023-03-18T04:04:53;6.47;;;5.53;;
28629;SDS011;15817;42.130;24.762;2023-03-18T04:07:28;10.35;;;5.07;;
28629;SDS011;15817;42.130;24.762;2023-03-18T04:10:11;8.57;;;5.68;;
28629;SDS011;15817;42.130;24.762;2023-03-18T04:12:39;8.20;;;6.35;;
28629;SDS011;15817;42.130;24.762;2023-03-18T04:15:08;8.40;;;6.40;;
28629;SDS011;15817;42.130;24.762;2023-03-18T04:17:36;10.20;;;6.50;;
28629;SDS011;15817;42.130;24.762;2023-03-18T04:20:07;7.45;;;6.07;;
28629;SDS011;15817;42.130;24.762;2023-03-18T04:22:34;7.72;;;6.40;;
28629;SDS011;15817;42.130;24.762;2023-03-18T04:25:03;8.13;;;6.32;;
28629;SDS011;15817;42.130;24.762;2023-03-18T04:27:29;10.73;;;7.32;;
28629;SDS011;15817;42.130;24.762;2023-03-18T04:29:59;9.85;;;6.95;;
28629;SDS011;15817;42.130;24.762;2023-03-18T04:32:49;11.43;;;6.63;;
28629;SDS011;15817;42.130;24.762;2023-03-18T04:35:16;13.98;;;6.97;;
28629;SDS011;15817;42.130;24.762;2023-03-18T04:37:43;13.82;;;7.00;;
28629;SDS011;15817;42.130;24.762;2023-03-18T04:40:29;10.30;;;7.20;;
28629;SDS011;15817;42.130;24.762;2023-03-18T04:43:53;15.70;;;7.93;;
28629;SDS011;15817;42.130;24.762;2023-03-18T04:46:27;10.52;;;6.95;;
28629;SDS011;15817;42.130;24.762;2023-03-18T04:48:57;11.60;;;7.38;;
28629;SDS011;15817;42.130;24.762;2023-03-18T04:51:42;15.25;;;7.07;;
28629;SDS011;15817;42.130;24.762;2023-03-18T04:54:20;15.07;;;7.20;;
28629;SDS011;15817;42.130;24.762;2023-03-18T04:56:49;11.75;;;7.50;;
28629;SDS011;15817;42.130;24.762;2023-03-18T04:59:15;10.25;;;7.05;;
28629;SDS011;15817;42.130;24.762;2023-03-18T05:04:41;12.65;;;7.47;;
28629;SDS011;15817;42.130;24.762;2023-03-18T05:07:11;10.93;;;7.05;;
28629;SDS011;15817;42.130;24.762;2023-03-18T05:09:41;10.00;;;7.38;;
28629;SDS011;15817;42.130;24.762;2023-03-18T05:13:11;14.00;;;7.30;;
28629;SDS011;15817;42.130;24.762;2023-03-18T05:15:31;10.25;;;7.45;;
28629;SDS011;15817;42.130;24.762;2023-03-18T05:18:08;13.32;;;8.60;;
28629;SDS011;15817;42.130;24.762;2023-03-18T05:20:51;12.88;;;8.05;;
28629;SDS011;15817;42.130;24.762;2023-03-18T05:24:08;12.88;;;7.85;;
28629;SDS011;15817;42.130;24.762;2023-03-18T05:26:53;13.20;;;8.35;;
28629;SDS011;15817;42.130;24.762;2023-03-18T05:29:42;11.45;;;7.70;;
28629;SDS011;15817;42.130;24.762;2023-03-18T05:32:52;11.60;;;7.35;;
28629;SDS011;15817;42.130;24.762;2023-03-18T05:35:38;18.98;;;8.45;;
28629;SDS011;15817;42.130;24.762;2023-03-18T05:38:46;11.93;;;7.47;;
28629;SDS011;15817;42.130;24.762;2023-03-18T05:41:52;10.95;;;7.32;;
28629;SDS011;15817;42.130;24.762;2023-03-18T05:44:38;10.77;;;7.00;;
28629;SDS011;15817;42.130;24.762;2023-03-18T05:47:15;12.35;;;7.35;;
28629;SDS011;15817;42.130;24.762;2023-03-18T05:49:55;11.43;;;6.50;;
28629;SDS011;15817;42.130;24.762;2023-03-18T05:52:50;13.95;;;7.53;;
28629;SDS011;15817;42.130;24.762;2023-03-18T05:55:46;13.85;;;7.95;;
28629;SDS011;15817;42.130;24.762;2023-03-18T05:58:37;14.73;;;7.40;;
28629;SDS011;15817;42.130;24.762;2023-03-18T06:01:45;12.73;;;8.00;;
28629;SDS011;15817;42.130;24.762;2023-03-18T06:04:47;10.70;;;7.13;;
28629;SDS011;15817;42.130;24.762;2023-03-18T06:11:05;11.15;;;6.95;;
28629;SDS011;15817;42.130;24.762;2023-03-18T06:13:34;17.55;;;7.43;;
28629;SDS011;15817;42.130;24.762;2023-03-18T06:16:10;16.38;;;7.75;;
28629;SDS011;15817;42.130;24.762;2023-03-18T06:18:58;10.68;;;6.80;;
28629;SDS011;15817;42.130;24.762;2023-03-18T06:21:53;10.75;;;6.10;;
28629;SDS011;15817;42.130;24.762;2023-03-18T06:24:24;13.48;;;6.78;;
28629;SDS011;15817;42.130;24.762;2023-03-18T06:27:01;10.65;;;6.78;;
28629;SDS011;15817;42.130;24.762;2023-03-18T06:29:50;15.20;;;6.82;;
28629;SDS011;15817;42.130;24.762;2023-03-18T06:32:17;12.60;;;5.88;;
28629;SDS011;15817;42.130;24.762;2023-03-18T06:38:57;9.32;;;5.90;;
28629;SDS011;15817;42.130;24.762;2023-03-18T06:48:50;11.50;;;6.80;;
28629;SDS011;15817;42.130;24.762;2023-03-18T06:55:27;9.02;;;6.47;;
28629;SDS011;15817;42.130;24.762;2023-03-18T07:02:17;8.93;;;6.78;;
28629;SDS011;15817;42.130;24.762;2023-03-18T07:05:20;15.25;;;6.75;;
28629;SDS011;15817;42.130;24.762;2023-03-18T07:14:20;14.68;;;7.72;;
28629;SDS011;15817;42.130;24.762;2023-03-18T07:16:49;8.88;;;6.53;;
28629;SDS011;15817;42.130;24.762;2023-03-18T07:20:00;9.90;;;6.10;;
28629;SDS011;15817;42.130;24.762;2023-03-18T07:22:29;13.00;;;6.28;;
28629;SDS011;15817;42.130;24.762;2023-03-18T07:28:48;9.30;;;6.35;;
28629;SDS011;15817;42.130;24.762;2023-03-18T07:42:19;9.00;;;6.63;;
28629;SDS011;15817;42.130;24.762;2023-03-18T07:51:58;10.45;;;7.25;;
28629;SDS011;15817;42.130;24.762;2023-03-18T07:58:37;9.30;;;6.20;;
28629;SDS011;15817;42.130;24.762;2023-03-18T08:05:25;10.70;;;7.05;;
28629;SDS011;15817;42.130;24.762;2023-03-18T08:08:09;12.32;;;5.75;;
28629;SDS011;15817;42.130;24.762;2023-03-18T08:10:45;10.07;;;6.40;;
28629;SDS011;15817;42.130;24.762;2023-03-18T08:16:24;14.20;;;6.82;;
28629;SDS011;15817;42.130;24.762;2023-03-18T08:19:28;10.98;;;6.82;;
28629;SDS011;15817;42.130;24.762;2023-03-18T08:25:19;9.98;;;7.40;;
28629;SDS011;15817;42.130;24.762;2023-03-18T08:28:54;9.88;;;7.07;;
28629;SDS011;15817;42.130;24.762;2023-03-18T08:31:20;12.73;;;7.75;;
28629;SDS011;15817;42.130;24.762;2023-03-18T08:33:55;12.05;;;7.07;;
28629;SDS011;15817;42.130;24.762;2023-03-18T08:36:22;11.00;;;6.80;;
28629;SDS011;15817;42.130;24.762;2023-03-18T08:38:56;9.45;;;7.03;;
28629;SDS011;15817;42.130;24.762;2023-03-18T08:41:45;11.00;;;6.72;;
28629;SDS011;15817;42.130;24.762;2023-03-18T08:44:23;10.40;;;6.05;;
28629;SDS011;15817;42.130;24.762;2023-03-18T08:47:01;10.00;;;6.75;;
28629;SDS011;15817;42.130;24.762;2023-03-18T08:49:41;8.63;;;6.10;;
28629;SDS011;15817;42.130;24.762;2023-03-18T08:52:10;13.52;;;7.03;;
28629;SDS011;15817;42.130;24.762;2023-03-18T08:54:36;11.65;;;6.80;;
28629;SDS011;15817;42.130;24.762;2023-03-18T08:57:47;14.85;;;7.30;;
28629;SDS011;15817;42.130;24.762;2023-03-18T09:00:25;13.57;;;6.55;;
28629;SDS011;15817;42.130;24.762;2023-03-18T09:03:04;10.63;;;6.28;;
28629;SDS011;15817;42.130;24.762;2023-03-18T09:05:43;7.38;;;5.93;;
28629;SDS011;15817;42.130;24.762;2023-03-18T09:08:13;14.52;;;6.00;;
28629;SDS011;15817;42.130;24.762;2023-03-18T09:10:50;13.48;;;6.50;;
28629;SDS011;15817;42.130;24.762;2023-03-18T09:13:21;6.85;;;5.00;;
28629;SDS011;15817;42.130;24.762;2023-03-18T09:16:07;12.30;;;6.22;;
28629;SDS011;15817;42.130;24.762;2023-03-18T09:22:33;7.90;;;5.88;;
28629;SDS011;15817;42.130;24.762;2023-03-18T09:25:34;9.20;;;5.93;;
28629;SDS011;15817;42.130;24.762;2023-03-18T09:28:11;7.45;;;4.70;;
28629;SDS011;15817;42.130;24.762;2023-03-18T09:31:06;6.40;;;4.95;;
28629;SDS011;15817;42.130;24.762;2023-03-18T09:33:36;7.68;;;4.80;;
28629;SDS011;15817;42.130;24.762;2023-03-18T09:36:11;6.65;;;5.13;;
28629;SDS011;15817;42.130;24.762;2023-03-18T09:38:38;6.93;;;4.93;;
28629;SDS011;15817;42.130;24.762;2023-03-18T09:44:14;14.27;;;6.28;;
28629;SDS011;15817;42.130;24.762;2023-03-18T09:53:38;9.82;;;6.28;;
28629;SDS011;15817;42.130;24.762;2023-03-18T09:56:20;11.18;;;5.88;;
28629;SDS011;15817;42.130;24.762;2023-03-18T09:59:00;8.55;;;6.18;;
28629;SDS011;15817;42.130;24.762;2023-03-18T10:01:46;10.70;;;6.88;;
28629;SDS011;15817;42.130;24.762;2023-03-18T10:07:24;15.25;;;6.55;;
28629;SDS011;15817;42.130;24.762;2023-03-18T10:10:01;10.80;;;6.60;;
28629;SDS011;15817;42.130;24.762;2023-03-18T10:12:46;11.70;;;6.97;;
28629;SDS011;15817;42.130;24.762;2023-03-18T10:15:20;8.75;;;6.55;;
28629;SDS011;15817;42.130;24.762;2023-03-18T10:17:59;9.73;;;6.90;;
28629;SDS011;15817;42.130;24.762;2023-03-18T10:20:42;9.68;;;7.40;;
28629;SDS011;15817;42.130;24.762;2023-03-18T10:23:17;10.38;;;7.30;;
28629;SDS011;15817;42.130;24.762;2023-03-18T10:26:15;9.00;;;6.85;;
28629;SDS011;15817;42.130;24.762;2023-03-18T10:29:06;9.05;;;6.38;;
28629;SDS011;15817;42.130;24.762;2023-03-18T10:37:40;9.50;;;6.38;;
28629;SDS011;15817;42.130;24.762;2023-03-18T10:40:17;7.82;;;5.85;;
28629;SDS011;15817;42.130;24.762;2023-03-18T10:42:52;7.88;;;4.53;;
28629;SDS011;15817;42.130;24.762;2023-03-18T10:45:22;6.53;;;3.22;;
28629;SDS011;15817;42.130;24.762;2023-03-18T11:06:34;5.93;;;4.25;;
28629;SDS011;15817;42.130;24.762;2023-03-18T11:20:38;5.60;;;4.10;;
28629;SDS011;15817;42.130;24.762;2023-03-18T11:23:32;8.35;;;4.18;;
28629;SDS011;15817;42.130;24.762;2023-03-18T11:31:20;10.07;;;4.55;;
28629;SDS011;15817;42.130;24.762;2023-03-18T11:33:46;8.90;;;4.50;;
28629;SDS011;15817;42.130;24.762;2023-03-18T11:36:36;6.25;;;4.18;;
28629;SDS011;15817;42.130;24.762;2023-03-18T11:39:14;6.05;;;4.22;;
28629;SDS011;15817;42.130;24.762;2023-03-18T11:41:41;6.47;;;3.90;;
28629;SDS011;15817;42.130;24.762;2023-03-18T11:44:31;4.60;;;3.47;;
28629;SDS011;15817;42.130;24.762;2023-03-18T11:54:33;5.75;;;3.80;;
28629;SDS011;15817;42.130;24.762;2023-03-18T11:57:35;4.57;;;3.60;;
28629;SDS011;15817;42.130;24.762;2023-03-18T12:27:58;5.05;;;3.33;;
28629;SDS011;15817;42.130;24.762;2023-03-18T12:37:47;7.35;;;3.40;;
28629;SDS011;15817;42.130;24.762;2023-03-18T12:41:08;8.40;;;3.05;;
28629;SDS011;15817;42.130;24.762;2023-03-18T12:51:59;4.95;;;2.90;;
28629;SDS011;15817;42.130;24.762;2023-03-18T12:59:59;7.70;;;3.55;;
28629;SDS011;15817;42.130;24.762;2023-03-18T13:03:31;4.85;;;2.92;;
28629;SDS011;15817;42.130;24.762;2023-03-18T13:09:32;4.85;;;3.55;;
28629;SDS011;15817;42.130;24.762;2023-03-18T13:12:34;5.50;;;3.60;;
28629;SDS011;15817;42.130;24.762;2023-03-18T13:19:03;6.22;;;3.67;;
28629;SDS011;15817;42.130;24.762;2023-03-18T13:28:40;6.25;;;2.88;;
28629;SDS011;15817;42.130;24.762;2023-03-18T13:39:00;6.25;;;3.58;;
28629;SDS011;15817;42.130;24.762;2023-03-18T13:44:43;4.47;;;2.95;;
28629;SDS011;15817;42.130;24.762;2023-03-18T13:47:28;5.10;;;3.55;;
28629;SDS011;15817;42.130;24.762;2023-03-18T13:54:21;4.85;;;3.78;;
28629;SDS011;15817;42.130;24.762;2023-03-18T15:21:49;5.53;;;3.33;;
28629;SDS011;15817;42.130;24.762;2023-03-18T15:24:25;4.90;;;3.22;;
28629;SDS011;15817;42.130;24.762;2023-03-18T15:27:31;6.72;;;3.40;;
28629;SDS011;15817;42.130;24.762;2023-03-18T15:30:00;6.13;;;3.60;;
28629;SDS011;15817;42.130;24.762;2023-03-18T15:32:44;5.40;;;3.25;;
28629;SDS011;15817;42.130;24.762;2023-03-18T15:35:24;6.30;;;3.60;;
28629;SDS011;15817;42.130;24.762;2023-03-18T15:41:00;8.40;;;4.10;;
28629;SDS011;15817;42.130;24.762;2023-03-18T15:47:39;7.88;;;3.13;;
28629;SDS011;15817;42.130;24.762;2023-03-18T15:51:00;9.63;;;3.58;;
28629;SDS011;15817;42.130;24.762;2023-03-18T15:54:28;8.20;;;3.72;;
28629;SDS011;15817;42.130;24.762;2023-03-18T15:57:43;7.97;;;3.78;;
28629;SDS011;15817;42.130;24.762;2023-03-18T16:01:14;8.10;;;3.80;;
28629;SDS011;15817;42.130;24.762;2023-03-18T16:04:13;7.82;;;3.70;;
28629;SDS011;15817;42.130;24.762;2023-03-18T16:06:56;6.07;;;3.50;;
28629;SDS011;15817;42.130;24.762;2023-03-18T16:10:22;7.32;;;3.80;;
28629;SDS011;15817;42.130;24.762;2023-03-18T16:13:52;6.95;;;3.55;;
28629;SDS011;15817;42.130;24.762;2023-03-18T16:16:50;7.80;;;3.60;;
28629;SDS011;15817;42.130;24.762;2023-03-18T16:19:27;9.00;;;3.58;;
28629;SDS011;15817;42.130;24.762;2023-03-18T16:21:54;4.97;;;3.47;;
28629;SDS011;15817;42.130;24.762;2023-03-18T16:24:51;7.03;;;3.60;;
28629;SDS011;15817;42.130;24.762;2023-03-18T16:27:43;7.85;;;4.13;;
28629;SDS011;15817;42.130;24.762;2023-03-18T16:37:01;11.02;;;4.05;;
28629;SDS011;15817;42.130;24.762;2023-03-18T16:39:36;7.53;;;3.92;;
28629;SDS011;15817;42.130;24.762;2023-03-18T16:42:30;12.38;;;4.95;;
28629;SDS011;15817;42.130;24.762;2023-03-18T16:44:59;11.25;;;4.78;;
28629;SDS011;15817;42.130;24.762;2023-03-18T16:47:40;11.32;;;4.88;;
28629;SDS011;15817;42.130;24.762;2023-03-18T16:52:59;12.18;;;4.70;;
28629;SDS011;15817;42.130;24.762;2023-03-18T16:55:50;9.80;;;4.75;;
28629;SDS011;15817;42.130;24.762;2023-03-18T17:05:57;6.18;;;3.80;;
28629;SDS011;15817;42.130;24.762;2023-03-18T17:15:59;15.02;;;6.68;;
28629;SDS011;15817;42.130;24.762;2023-03-18T17:19:33;12.80;;;6.57;;
28629;SDS011;15817;42.130;24.762;2023-03-18T17:22:51;13.13;;;5.20;;
28629;SDS011;15817;42.130;24.762;2023-03-18T17:25:55;10.38;;;5.18;;
28629;SDS011;15817;42.130;24.762;2023-03-18T18:08:38;25.00;;;10.90;;
28629;SDS011;15817;42.130;24.762;2023-03-18T18:11:23;21.75;;;10.07;;
28629;SDS011;15817;42.130;24.762;2023-03-18T18:13:52;19.70;;;9.82;;
28629;SDS011;15817;42.130;24.762;2023-03-18T18:19:28;15.80;;;9.50;;
28629;SDS011;15817;42.130;24.762;2023-03-18T18:22:00;20.75;;;9.70;;
28629;SDS011;15817;42.130;24.762;2023-03-18T18:24:28;17.20;;;9.20;;
28629;SDS011;15817;42.130;24.762;2023-03-18T18:26:57;19.48;;;8.45;;
28629;SDS011;15817;42.130;24.762;2023-03-18T18:29:32;20.10;;;9.27;;
28629;SDS011;15817;42.130;24.762;2023-03-18T18:32:06;17.73;;;8.38;;
28629;SDS011;15817;42.130;24.762;2023-03-18T18:34:37;17.83;;;9.60;;
28629;SDS011;15817;42.130;24.762;2023-03-18T18:37:08;27.85;;;9.25;;
28629;SDS011;15817;42.130;24.762;2023-03-18T18:39:34;19.75;;;9.23;;
28629;SDS011;15817;42.130;24.762;2023-03-18T18:42:08;19.08;;;8.77;;
28629;SDS011;15817;42.130;24.762;2023-03-18T18:44:42;18.55;;;9.52;;
28629;SDS011;15817;42.130;24.762;2023-03-18T18:47:19;18.42;;;9.02;;
28629;SDS011;15817;42.130;24.762;2023-03-18T18:59:26;18.27;;;8.98;;
28629;SDS011;15817;42.130;24.762;2023-03-18T19:02:20;21.42;;;8.98;;
28629;SDS011;15817;42.130;24.762;2023-03-18T19:04:57;16.75;;;9.38;;
28629;SDS011;15817;42.130;24.762;2023-03-18T19:08:13;22.83;;;8.60;;
28629;SDS011;15817;42.130;24.762;2023-03-18T19:10:47;30.30;;;9.40;;
28629;SDS011;15817;42.130;24.762;2023-03-18T19:13:13;16.00;;;8.60;;
28629;SDS011;15817;42.130;24.762;2023-03-18T19:19:53;20.23;;;9.27;;
28629;SDS011;15817;42.130;24.762;2023-03-18T19:22:22;19.95;;;9.02;;
28629;SDS011;15817;42.130;24.762;2023-03-18T19:25:07;11.55;;;7.85;;
28629;SDS011;15817;42.130;24.762;2023-03-18T19:31:01;14.77;;;8.18;;
28629;SDS011;15817;42.130;24.762;2023-03-18T19:37:01;14.80;;;9.07;;
28629;SDS011;15817;42.130;24.762;2023-03-18T19:39:40;15.88;;;9.07;;
28629;SDS011;15817;42.130;24.762;2023-03-18T19:42:22;14.35;;;6.93;;
28629;SDS011;15817;42.130;24.762;2023-03-18T19:44:55;10.90;;;5.22;;
28629;SDS011;15817;42.130;24.762;2023-03-18T20:01:01;9.77;;;5.68;;
28629;SDS011;15817;42.130;24.762;2023-03-18T20:03:33;11.05;;;5.72;;
28629;SDS011;15817;42.130;24.762;2023-03-18T20:09:38;14.05;;;6.25;;
28629;SDS011;15817;42.130;24.762;2023-03-18T20:12:19;8.02;;;5.65;;
28629;SDS011;15817;42.130;24.762;2023-03-18T20:15:15;17.52;;;5.53;;
28629;SDS011;15817;42.130;24.762;2023-03-18T20:21:01;13.23;;;6.03;;
28629;SDS011;15817;42.130;24.762;2023-03-18T20:23:36;12.52;;;5.35;;
28629;SDS011;15817;42.130;24.762;2023-03-18T20:26:29;11.48;;;6.03;;
28629;SDS011;15817;42.130;24.762;2023-03-18T20:29:27;13.00;;;8.23;;
28629;SDS011;15817;42.130;24.762;2023-03-18T20:32:27;16.95;;;7.93;;
28629;SDS011;15817;42.130;24.762;2023-03-18T20:35:05;17.13;;;8.38;;
28629;SDS011;15817;42.130;24.762;2023-03-18T20:41:17;21.55;;;9.02;;
28629;SDS011;15817;42.130;24.762;2023-03-18T20:44:00;13.35;;;8.73;;
28629;SDS011;15817;42.130;24.762;2023-03-18T20:46:59;14.27;;;7.30;;
28629;SDS011;15817;42.130;24.762;2023-03-18T20:49:31;14.52;;;7.05;;
28629;SDS011;15817;42.130;24.762;2023-03-18T20:52:26;18.13;;;8.43;;
28629;SDS011;15817;42.130;24.762;2023-03-18T20:55:05;18.73;;;8.30;;
28629;SDS011;15817;42.130;24.762;2023-03-18T20:57:55;19.25;;;9.85;;
28629;SDS011;15817;42.130;24.762;2023-03-18T21:03:44;20.08;;;10.43;;
28629;SDS011;15817;42.130;24.762;2023-03-18T21:06:39;16.20;;;10.15;;
28629;SDS011;15817;42.130;24.762;2023-03-18T21:09:16;20.33;;;11.40;;
28629;SDS011;15817;42.130;24.762;2023-03-18T21:11:47;19.25;;;11.13;;
28629;SDS011;15817;42.130;24.762;2023-03-18T21:14:34;16.48;;;10.30;;
28629;SDS011;15817;42.130;24.762;2023-03-18T21:17:35;18.38;;;11.43;;
28629;SDS011;15817;42.130;24.762;2023-03-18T21:20:14;20.05;;;10.90;;
28629;SDS011;15817;42.130;24.762;2023-03-18T21:26:33;19.50;;;11.98;;
28629;SDS011;15817;42.130;24.762;2023-03-18T21:29:12;21.35;;;12.40;;
28629;SDS011;15817;42.130;24.762;2023-03-18T21:31:44;23.63;;;13.75;;
28629;SDS011;15817;42.130;24.762;2023-03-18T21:34:17;23.13;;;13.88;;
28629;SDS011;15817;42.130;24.762;2023-03-18T21:40:27;23.98;;;13.55;;
28629;SDS011;15817;42.130;24.762;2023-03-18T21:43:08;22.45;;;12.88;;
28629;SDS011;15817;42.130;24.762;2023-03-18T21:46:08;20.08;;;12.73;;
28629;SDS011;15817;42.130;24.762;2023-03-18T21:48:48;19.98;;;10.77;;
28629;SDS011;15817;42.130;24.762;2023-03-18T21:54:25;14.80;;;8.77;;
28629;SDS011;15817;42.130;24.762;2023-03-18T21:56:58;15.02;;;8.35;;
28629;SDS011;15817;42.130;24.762;2023-03-18T21:59:39;16.35;;;8.05;;
28629;SDS011;15817;42.130;24.762;2023-03-18T22:02:45;13.43;;;7.97;;
28629;SDS011;15817;42.130;24.762;2023-03-18T22:05:40;11.27;;;7.30;;
28629;SDS011;15817;42.130;24.762;2023-03-18T22:08:19;13.07;;;7.50;;
28629;SDS011;15817;42.130;24.762;2023-03-18T22:11:19;13.98;;;7.60;;
28629;SDS011;15817;42.130;24.762;2023-03-18T22:14:35;10.27;;;6.40;;
28629;SDS011;15817;42.130;24.762;2023-03-18T22:20:24;10.27;;;6.60;;
28629;SDS011;15817;42.130;24.762;2023-03-18T22:23:26;14.75;;;7.45;;
28629;SDS011;15817;42.130;24.762;2023-03-18T22:26:03;13.23;;;7.13;;
28629;SDS011;15817;42.130;24.762;2023-03-18T22:28:46;16.00;;;8.00;;
28629;SDS011;15817;42.130;24.762;2023-03-18T22:31:24;13.20;;;7.30;;
28629;SDS011;15817;42.130;24.762;2023-03-18T22:33:55;10.75;;;7.72;;
28629;SDS011;15817;42.130;24.762;2023-03-18T22:36:24;13.40;;;8.45;;
28629;SDS011;15817;42.130;24.762;2023-03-18T22:39:15;19.65;;;8.73;;
28629;SDS011;15817;42.130;24.762;2023-03-18T22:41:41;15.35;;;10.10;;
28629;SDS011;15817;42.130;24.762;2023-03-18T22:44:49;17.65;;;10.38;;
28629;SDS011;15817;42.130;24.762;2023-03-18T22:47:16;21.52;;;11.75;;
28629;SDS011;15817;42.130;24.762;2023-03-18T22:52:38;20.67;;;12.93;;
28629;SDS011;15817;42.130;24.762;2023-03-18T22:55:20;17.45;;;11.88;;
28629;SDS011;15817;42.130;24.762;2023-03-18T22:58:01;19.75;;;12.75;;
28629;SDS011;15817;42.130;24.762;2023-03-18T23:00:37;21.58;;;12.43;;
28629;SDS011;15817;42.130;24.762;2023-03-18T23:03:21;21.27;;;12.43;;
28629;SDS011;15817;42.130;24.762;2023-03-18T23:05:55;20.02;;;11.98;;
28629;SDS011;15817;42.130;24.762;2023-03-18T23:11:20;20.27;;;11.82;;
28629;SDS011;15817;42.130;24.762;2023-03-18T23:13:55;21.98;;;13.02;;
28629;SDS011;15817;42.130;24.762;2023-03-18T23:16:43;22.55;;;13.18;;
28629;SDS011;15817;42.130;24.762;2023-03-18T23:19:17;23.63;;;13.20;;
28629;SDS011;15817;42.130;24.762;2023-03-18T23:21:46;24.80;;;14.35;;
28629;SDS011;15817;42.130;24.762;2023-03-18T23:24:15;26.05;;;13.57;;
28629;SDS011;15817;42.130;24.762;2023-03-18T23:26:50;27.58;;;13.55;;
28629;SDS011;15817;42.130;24.762;2023-03-18T23:29:23;28.73;;;14.85;;
28629;SDS011;15817;42.130;24.762;2023-03-18T23:34:46;28.23;;;14.32;;
28629;SDS011;15817;42.130;24.762;2023-03-18T23:37:13;26.67;;;14.30;;
28629;SDS011;15817;42.130;24.762;2023-03-18T23:39:45;25.98;;;14.35;;
28629;SDS011;15817;42.130;24.762;2023-03-18T23:42:14;21.75;;;13.02;;
28629;SDS011;15817;42.130;24.762;2023-03-18T23:44:42;24.92;;;12.98;;
28629;SDS011;15817;42.130;24.762;2023-03-18T23:47:14;21.00;;;12.40;;
28629;SDS011;15817;42.130;24.762;2023-03-18T23:49:42;23.83;;;12.25;;
28629;SDS011;15817;42.130;24.762;2023-03-18T23:52:11;22.95;;;11.70;;
28629;SDS011;15817;42.130;24.762;2023-03-18T23:54:39;24.17;;;12.40;;
28629;SDS011;15817;42.130;24.762;2023-03-18T23:57:08;18.92;;;11.30;;
